Time,TemperatureF,DewpointF,PressureIn,WindDirection,WindDirectionDegrees,WindSpeedMPH,WindSpeedGustMPH,Humidity,HourlyPrecipIn,Conditions,Clouds,dailyrainin,SoftwareType,DateUTC
2013-05-16 00:00:00,53.2,41.4,29.72,West,260,4.6,4.6,64,0.00,FEW,,0.00,WeatherDisplay:10.37,2013-05-16 04:00:00,
2013-05-16 00:01:00,53.2,47.9,29.72,West,260,0.0,4.6,82,0.00,FEW,,0.00,WeatherDisplay:10.37,2013-05-16 04:01:00,
2013-05-16 00:02:00,53.4,48.1,29.72,West,260,0.0,4.6,82,0.00,FEW,,0.00,WeatherDisplay:10.37,2013-05-16 04:02:00,
2013-05-16 00:07:00,53.4,48.1,29.72,West,260,0.0,0.0,82,0.00,FEW,,0.00,WeatherDisplay:10.37,2013-05-16 04:07:00,
2013-05-16 00:12:00,53.6,48.2,29.72,West,260,0.0,0.0,82,0.00,FEW,,0.00,WeatherDisplay:10.37,2013-05-16 04:12:00,
2013-05-16 00:17:00,53.6,48.2,29.75,West,260,0.0,0.0,82,0.00,FEW,,0.00,WeatherDisplay:10.37,2013-05-16 04:17:00,
2013-05-16 00:22:00,53.6,48.2,29.75,West,260,0.0,0.0,82,0.00,FEW,,0.00,WeatherDisplay:10.37,2013-05-16 04:22:00,
2013-05-16 00:27:00,53.4,48.1,29.75,West,260,0.0,0.0,82,0.00,FEW,,0.00,WeatherDisplay:10.37,2013-05-16 04:27:00,
2013-05-16 00:32:00,53.8,48.4,29.75,West,260,0.0,0.0,82,0.00,FEW,,0.00,WeatherDisplay:10.37,2013-05-16 04:32:00,
2013-05-16 00:37:00,54.3,48.9,29.75,West,260,0.0,0.0,82,0.00,FEW,,0.00,WeatherDisplay:10.37,2013-05-16 04:37:00,
2013-05-16 00:42:00,54.5,49.1,29.75,West,260,0.0,0.0,82,0.00,FEW,,0.00,WeatherDisplay:10.37,2013-05-16 04:42:00,
2013-05-16 00:47:00,55.0,49.6,29.72,West,260,0.0,0.0,82,0.00,FEW,,0.00,WeatherDisplay:10.37,2013-05-16 04:47:00,
2013-05-16 00:52:00,55.6,50.2,29.72,West,260,0.0,0.0,82,0.00,FEW,,0.00,WeatherDisplay:10.37,2013-05-16 04:52:00,
2013-05-16 00:57:00,55.4,50.0,29.72,West,260,0.0,0.0,82,0.00,FEW,,0.00,WeatherDisplay:10.37,2013-05-16 04:57:00,
2013-05-16 01:02:00,55.4,33.8,29.72,WNW,300,10.4,23.0,44,0.00,SCT,,0.00,WeatherDisplay:10.37,2013-05-16 05:02:00,
2013-05-16 01:07:00,55.9,34.3,29.72,WNW,300,10.4,23.0,44,0.00,SCT,,0.00,WeatherDisplay:10.37,2013-05-16 05:07:00,
2013-05-16 01:12:00,55.8,34.2,29.72,WNW,300,10.4,23.0,44,0.00,SCT,,0.00,WeatherDisplay:10.37,2013-05-16 05:12:00,
2013-05-16 01:17:00,55.8,34.2,29.72,WNW,300,10.4,23.0,44,0.00,SCT,,0.00,WeatherDisplay:10.37,2013-05-16 05:17:00,
2013-05-16 01:22:00,56.3,34.6,29.72,WNW,300,10.4,23.0,44,0.00,SCT,,0.00,WeatherDisplay:10.37,2013-05-16 05:22:00,
2013-05-16 01:27:00,56.8,35.1,29.72,WNW,300,10.4,23.0,44,0.00,SCT,,0.00,WeatherDisplay:10.37,2013-05-16 05:27:00,
2013-05-16 01:32:00,56.7,35.0,29.72,WNW,300,10.4,23.0,44,0.00,SCT,,0.00,WeatherDisplay:10.37,2013-05-16 05:32:00,
2013-05-16 01:37:00,56.5,34.8,29.72,WNW,300,10.4,23.0,44,0.00,SCT,,0.00,WeatherDisplay:10.37,2013-05-16 05:37:00,
2013-05-16 01:42:00,56.3,34.6,29.72,WNW,300,10.4,23.0,44,0.00,SCT,,0.00,WeatherDisplay:10.37,2013-05-16 05:42:00,
2013-05-16 01:47:00,56.1,34.5,29.69,WNW,300,10.4,23.0,44,0.00,SCT,,0.00,WeatherDisplay:10.37,2013-05-16 05:47:00,
2013-05-16 01:52:00,55.9,34.3,29.69,WNW,300,10.4,23.0,44,0.00,SCT,,0.00,WeatherDisplay:10.37,2013-05-16 05:52:00,
2013-05-16 01:57:00,55.9,34.3,29.69,WNW,300,10.4,23.0,44,0.00,SCT,,0.00,WeatherDisplay:10.37,2013-05-16 05:57:00,
2013-05-16 02:02:00,55.9,34.3,29.72,WNW,300,10.4,23.0,44,0.00,SCT,,0.00,WeatherDisplay:10.37,2013-05-16 06:02:00,
2013-05-16 02:07:00,55.8,34.2,29.72,WNW,300,10.4,23.0,44,0.00,SCT,,0.00,WeatherDisplay:10.37,2013-05-16 06:07:00,
2013-05-16 02:12:00,55.6,34.0,29.72,WNW,300,10.4,23.0,44,0.00,SCT,,0.00,WeatherDisplay:10.37,2013-05-16 06:12:00,
2013-05-16 02:17:00,55.4,34.4,29.69,WNW,300,0.0,0.0,45,0.00,BKN,,0.00,WeatherDisplay:10.37,2013-05-16 06:17:00,
2013-05-16 02:22:00,55.2,34.2,29.69,WNW,300,0.0,0.0,45,0.00,BKN,,0.00,WeatherDisplay:10.37,2013-05-16 06:22:00,
2013-05-16 02:27:00,55.2,34.2,29.69,WNW,300,0.0,0.0,45,0.00,BKN,,0.00,WeatherDisplay:10.37,2013-05-16 06:27:00,
2013-05-16 02:32:00,54.9,33.9,29.72,WNW,300,0.0,0.0,45,0.00,BKN,,0.00,WeatherDisplay:10.37,2013-05-16 06:32:00,
2013-05-16 02:37:00,54.5,33.6,29.72,WNW,300,0.0,0.0,45,0.00,BKN,,0.00,WeatherDisplay:10.37,2013-05-16 06:37:00,
2013-05-16 02:42:00,54.3,33.4,29.72,WNW,300,0.0,0.0,45,0.00,BKN,,0.00,WeatherDisplay:10.37,2013-05-16 06:42:00,
2013-05-16 02:47:00,54.0,33.1,29.72,WNW,300,0.0,0.0,45,0.00,BKN,,0.00,WeatherDisplay:10.37,2013-05-16 06:47:00,
2013-05-16 02:52:00,54.0,33.1,29.72,WNW,300,0.0,0.0,45,0.00,BKN,,0.00,WeatherDisplay:10.37,2013-05-16 06:52:00,
2013-05-16 02:57:00,53.6,32.8,29.72,WNW,300,0.0,0.0,45,0.00,BKN,,0.00,WeatherDisplay:10.37,2013-05-16 06:57:00,
2013-05-16 03:02:00,53.2,32.4,29.69,WNW,300,0.0,0.0,45,0.00,BKN,,0.00,WeatherDisplay:10.37,2013-05-16 07:02:00,
2013-05-16 03:07:00,53.1,32.3,29.69,WNW,300,0.0,0.0,45,0.00,BKN,,0.00,WeatherDisplay:10.37,2013-05-16 07:07:00,
2013-05-16 03:12:00,52.9,32.1,29.69,WNW,300,0.0,0.0,45,0.00,BKN,,0.00,WeatherDisplay:10.37,2013-05-16 07:12:00,
2013-05-16 03:17:00,52.7,36.5,29.72,West,270,4.6,4.6,54,0.00,FEW,,0.00,WeatherDisplay:10.37,2013-05-16 07:17:00,
2013-05-16 03:22:00,52.3,36.2,29.72,West,270,4.6,4.6,54,0.00,FEW,,0.00,WeatherDisplay:10.37,2013-05-16 07:22:00,
2013-05-16 03:27:00,52.2,36.0,29.72,West,270,4.6,4.6,54,0.00,FEW,,0.00,WeatherDisplay:10.37,2013-05-16 07:27:00,
2013-05-16 03:32:00,51.8,35.7,29.72,West,270,4.6,4.6,54,0.00,FEW,,0.00,WeatherDisplay:10.37,2013-05-16 07:32:00,
2013-05-16 03:37:00,51.4,35.3,29.72,West,270,4.6,4.6,54,0.00,FEW,,0.00,WeatherDisplay:10.37,2013-05-16 07:37:00,
2013-05-16 03:42:00,51.4,35.3,29.72,West,270,4.6,4.6,54,0.00,FEW,,0.00,WeatherDisplay:10.37,2013-05-16 07:42:00,
2013-05-16 03:47:00,51.3,35.2,29.69,West,270,4.6,4.6,54,0.00,FEW,,0.00,WeatherDisplay:10.37,2013-05-16 07:47:00,
2013-05-16 03:52:00,50.9,34.8,29.69,West,270,4.6,4.6,54,0.00,FEW,,0.00,WeatherDisplay:10.37,2013-05-16 07:52:00,
2013-05-16 03:57:00,50.5,34.5,29.69,West,270,4.6,4.6,54,0.00,FEW,,0.00,WeatherDisplay:10.37,2013-05-16 07:57:00,
2013-05-16 04:02:00,50.4,34.3,29.72,West,270,4.6,4.6,54,0.00,FEW,,0.00,WeatherDisplay:10.37,2013-05-16 08:02:00,
2013-05-16 04:07:00,50.2,34.2,29.72,West,270,4.6,4.6,54,0.00,FEW,,0.00,WeatherDisplay:10.37,2013-05-16 08:07:00,
2013-05-16 04:12:00,49.8,33.8,29.72,West,270,4.6,4.6,54,0.00,FEW,,0.00,WeatherDisplay:10.37,2013-05-16 08:12:00,
2013-05-16 04:17:00,49.5,41.2,29.69,West,270,0.0,0.0,73,0.00,FEW,,0.00,WeatherDisplay:10.37,2013-05-16 08:17:00,
2013-05-16 04:22:00,49.6,41.3,29.69,West,270,0.0,0.0,73,0.00,FEW,,0.00,WeatherDisplay:10.37,2013-05-16 08:22:00,
2013-05-16 04:27:00,49.6,41.3,29.69,West,270,0.0,0.0,73,0.00,FEW,,0.00,WeatherDisplay:10.37,2013-05-16 08:27:00,
2013-05-16 04:32:00,49.1,40.8,29.69,West,270,0.0,0.0,73,0.00,FEW,,0.00,WeatherDisplay:10.37,2013-05-16 08:32:00,
2013-05-16 04:37:00,48.7,40.5,29.69,West,270,0.0,0.0,73,0.00,FEW,,0.00,WeatherDisplay:10.37,2013-05-16 08:37:00,
2013-05-16 04:42:00,48.7,40.5,29.69,West,270,0.0,0.0,73,0.00,FEW,,0.00,WeatherDisplay:10.37,2013-05-16 08:42:00,
2013-05-16 04:47:00,48.9,40.6,29.72,West,270,0.0,0.0,73,0.00,FEW,,0.00,WeatherDisplay:10.37,2013-05-16 08:47:00,
2013-05-16 04:52:00,48.4,40.1,29.72,West,270,0.0,0.0,73,0.00,FEW,,0.00,WeatherDisplay:10.37,2013-05-16 08:52:00,
2013-05-16 04:57:00,48.2,39.9,29.72,West,270,0.0,0.0,73,0.00,FEW,,0.00,WeatherDisplay:10.37,2013-05-16 08:57:00,
2013-05-16 05:02:00,48.0,39.8,29.72,West,270,0.0,0.0,73,0.00,FEW,,0.00,WeatherDisplay:10.37,2013-05-16 09:02:00,
2013-05-16 05:07:00,48.0,39.8,29.72,West,270,0.0,0.0,73,0.00,FEW,,0.00,WeatherDisplay:10.37,2013-05-16 09:07:00,
2013-05-16 05:12:00,48.0,39.8,29.72,West,270,0.0,0.0,73,0.00,FEW,,0.00,WeatherDisplay:10.37,2013-05-16 09:12:00,
2013-05-16 05:17:00,47.7,43.4,29.72,South,190,3.5,3.5,85,0.00,FEW,,0.00,WeatherDisplay:10.37,2013-05-16 09:17:00,
2013-05-16 05:22:00,47.7,43.4,29.72,South,190,3.5,3.5,85,0.00,FEW,,0.00,WeatherDisplay:10.37,2013-05-16 09:22:00,
2013-05-16 05:27:00,47.5,43.2,29.72,South,190,3.5,3.5,85,0.00,FEW,,0.00,WeatherDisplay:10.37,2013-05-16 09:27:00,
2013-05-16 05:32:00,47.5,43.2,29.72,South,190,3.5,3.5,85,0.00,FEW,,0.00,WeatherDisplay:10.37,2013-05-16 09:32:00,
2013-05-16 05:37:00,47.3,43.0,29.72,South,190,3.5,3.5,85,0.00,FEW,,0.00,WeatherDisplay:10.37,2013-05-16 09:37:00,
2013-05-16 05:42:00,47.3,43.0,29.72,South,190,3.5,3.5,85,0.00,FEW,,0.00,WeatherDisplay:10.37,2013-05-16 09:42:00,
2013-05-16 05:47:00,47.3,43.0,29.72,South,190,3.5,3.5,85,0.00,FEW,,0.00,WeatherDisplay:10.37,2013-05-16 09:47:00,
2013-05-16 05:52:00,47.3,43.0,29.72,South,190,3.5,3.5,85,0.00,FEW,,0.00,WeatherDisplay:10.37,2013-05-16 09:52:00,
2013-05-16 05:57:00,47.3,43.0,29.72,South,190,3.5,3.5,85,0.00,FEW,,0.00,WeatherDisplay:10.37,2013-05-16 09:57:00,
2013-05-16 06:02:00,47.3,43.0,29.72,South,190,3.5,3.5,85,0.00,FEW,,0.00,WeatherDisplay:10.37,2013-05-16 10:02:00,
2013-05-16 06:07:00,47.1,42.8,29.72,South,190,3.5,3.5,85,0.00,FEW,,0.00,WeatherDisplay:10.37,2013-05-16 10:07:00,
2013-05-16 06:12:00,47.1,42.8,29.72,South,190,3.5,3.5,85,0.00,FEW,,0.00,WeatherDisplay:10.37,2013-05-16 10:12:00,
2013-05-16 06:17:00,46.9,42.7,29.75,South,190,0.0,0.0,85,0.00,FEW,,0.00,WeatherDisplay:10.37,2013-05-16 10:17:00,
2013-05-16 06:22:00,46.9,42.7,29.75,South,190,0.0,0.0,85,0.00,FEW,,0.00,WeatherDisplay:10.37,2013-05-16 10:22:00,
2013-05-16 06:27:00,46.9,42.7,29.75,South,190,0.0,0.0,85,0.00,FEW,,0.00,WeatherDisplay:10.37,2013-05-16 10:27:00,
2013-05-16 06:32:00,47.1,42.8,29.75,South,190,0.0,0.0,85,0.00,FEW,,0.00,WeatherDisplay:10.37,2013-05-16 10:32:00,
2013-05-16 06:37:00,47.3,43.0,29.75,South,190,0.0,0.0,85,0.00,FEW,,0.00,WeatherDisplay:10.37,2013-05-16 10:37:00,
2013-05-16 06:42:00,47.5,43.2,29.75,South,190,0.0,0.0,85,0.00,FEW,,0.00,WeatherDisplay:10.37,2013-05-16 10:42:00,
2013-05-16 06:47:00,47.7,43.4,29.77,South,190,0.0,0.0,85,0.00,FEW,,0.00,WeatherDisplay:10.37,2013-05-16 10:47:00,
2013-05-16 06:52:00,48.0,43.7,29.77,South,190,0.0,0.0,85,0.00,FEW,,0.00,WeatherDisplay:10.37,2013-05-16 10:52:00,
2013-05-16 06:57:00,48.2,43.9,29.77,South,190,0.0,0.0,85,0.00,FEW,,0.00,WeatherDisplay:10.37,2013-05-16 10:57:00,
2013-05-16 07:02:00,48.4,44.1,29.75,South,190,0.0,0.0,85,0.00,FEW,,0.00,WeatherDisplay:10.37,2013-05-16 11:02:00,
2013-05-16 07:07:00,48.6,44.3,29.75,South,190,0.0,0.0,85,0.00,FEW,,0.00,WeatherDisplay:10.37,2013-05-16 11:07:00,
2013-05-16 07:12:00,48.9,44.6,29.75,South,190,0.0,0.0,85,0.00,FEW,,0.00,WeatherDisplay:10.37,2013-05-16 11:12:00,
2013-05-16 07:17:00,49.3,43.4,29.77,South,180,3.5,3.5,80,0.00,FEW,,0.00,WeatherDisplay:10.37,2013-05-16 11:17:00,
2013-05-16 07:22:00,49.6,43.7,29.77,South,180,3.5,3.5,80,0.00,FEW,,0.00,WeatherDisplay:10.37,2013-05-16 11:22:00,
2013-05-16 07:27:00,50.0,44.1,29.77,South,180,3.5,3.5,80,0.00,FEW,,0.00,WeatherDisplay:10.37,2013-05-16 11:27:00,
2013-05-16 07:32:00,50.4,44.4,29.81,South,180,3.5,3.5,80,0.00,FEW,,0.00,WeatherDisplay:10.37,2013-05-16 11:32:00,
2013-05-16 07:37:00,50.5,44.6,29.81,South,180,3.5,3.5,80,0.00,FEW,,0.00,WeatherDisplay:10.37,2013-05-16 11:37:00,
2013-05-16 07:42:00,50.7,44.8,29.81,South,180,3.5,3.5,80,0.00,FEW,,0.00,WeatherDisplay:10.37,2013-05-16 11:42:00,
2013-05-16 07:47:00,51.3,45.3,29.83,South,180,3.5,3.5,80,0.00,FEW,,0.00,WeatherDisplay:10.37,2013-05-16 11:47:00,
2013-05-16 07:52:00,51.6,45.7,29.83,South,180,3.5,3.5,80,0.00,FEW,,0.00,WeatherDisplay:10.37,2013-05-16 11:52:00,
2013-05-16 07:57:00,52.0,46.0,29.83,South,180,3.5,3.5,80,0.00,FEW,,0.00,WeatherDisplay:10.37,2013-05-16 11:57:00,
2013-05-16 08:02:00,52.5,33.9,29.81,South,180,0.0,0.0,49,0.00,FEW,,0.00,WeatherDisplay:10.37,2013-05-16 12:02:00,
2013-05-16 08:07:00,53.1,34.4,29.81,South,180,0.0,0.0,49,0.00,FEW,,0.00,WeatherDisplay:10.37,2013-05-16 12:07:00,
2013-05-16 08:12:00,53.8,35.1,29.81,South,180,0.0,0.0,49,0.00,FEW,,0.00,WeatherDisplay:10.37,2013-05-16 12:12:00,
2013-05-16 08:17:00,54.5,35.7,29.77,South,180,0.0,0.0,49,0.00,FEW,,0.00,WeatherDisplay:10.37,2013-05-16 12:17:00,
2013-05-16 08:22:00,55.2,36.4,29.77,South,180,0.0,0.0,49,0.00,FEW,,0.00,WeatherDisplay:10.37,2013-05-16 12:22:00,
2013-05-16 08:27:00,55.6,36.7,29.77,South,180,0.0,0.0,49,0.00,FEW,,0.00,WeatherDisplay:10.37,2013-05-16 12:27:00,
2013-05-16 08:32:00,56.1,37.2,29.77,South,180,0.0,0.0,49,0.00,FEW,,0.00,WeatherDisplay:10.37,2013-05-16 12:32:00,
2013-05-16 08:37:00,56.8,37.9,29.77,South,180,0.0,0.0,49,0.00,FEW,,0.00,WeatherDisplay:10.37,2013-05-16 12:37:00,
2013-05-16 08:42:00,57.2,38.2,29.77,South,180,0.0,0.0,49,0.00,FEW,,0.00,WeatherDisplay:10.37,2013-05-16 12:42:00,
2013-05-16 08:47:00,58.1,39.0,29.83,South,180,0.0,0.0,49,0.00,FEW,,0.00,WeatherDisplay:10.37,2013-05-16 12:47:00,
2013-05-16 08:52:00,58.6,39.5,29.83,South,180,0.0,0.0,49,0.00,FEW,,0.00,WeatherDisplay:10.37,2013-05-16 12:52:00,
2013-05-16 08:57:00,59.7,40.5,29.83,South,180,0.0,0.0,49,0.00,FEW,,0.00,WeatherDisplay:10.37,2013-05-16 12:57:00,
2013-05-16 09:02:00,60.1,36.3,29.81,WNW,290,6.9,6.9,41,0.00,CLR,,0.00,WeatherDisplay:10.37,2013-05-16 13:02:00,
2013-05-16 09:07:00,61.2,37.3,29.81,WNW,290,6.9,6.9,41,0.00,CLR,,0.00,WeatherDisplay:10.37,2013-05-16 13:07:00,
2013-05-16 09:12:00,62.1,38.1,29.81,WNW,290,6.9,6.9,41,0.00,CLR,,0.00,WeatherDisplay:10.37,2013-05-16 13:12:00,
2013-05-16 09:17:00,63.3,39.2,29.81,WNW,290,6.9,6.9,41,0.00,CLR,,0.00,WeatherDisplay:10.37,2013-05-16 13:17:00,
2013-05-16 09:22:00,63.9,39.7,29.81,WNW,290,6.9,6.9,41,0.00,CLR,,0.00,WeatherDisplay:10.37,2013-05-16 13:22:00,
2013-05-16 09:27:00,64.6,40.3,29.81,WNW,290,6.9,6.9,41,0.00,CLR,,0.00,WeatherDisplay:10.37,2013-05-16 13:27:00,
2013-05-16 09:32:00,65.1,40.8,29.86,WNW,290,6.9,6.9,41,0.00,CLR,,0.00,WeatherDisplay:10.37,2013-05-16 13:32:00,
2013-05-16 09:37:00,65.7,41.3,29.86,WNW,290,6.9,6.9,41,0.00,CLR,,0.00,WeatherDisplay:10.37,2013-05-16 13:37:00,
2013-05-16 09:42:00,66.2,41.8,29.86,WNW,290,6.9,6.9,41,0.00,CLR,,0.00,WeatherDisplay:10.37,2013-05-16 13:42:00,
2013-05-16 09:47:00,66.4,42.0,29.86,WNW,290,6.9,6.9,41,0.00,CLR,,0.00,WeatherDisplay:10.37,2013-05-16 13:47:00,
2013-05-16 09:52:00,66.7,42.3,29.86,WNW,290,6.9,6.9,41,0.00,CLR,,0.00,WeatherDisplay:10.37,2013-05-16 13:52:00,
2013-05-16 09:57:00,66.9,42.4,29.86,WNW,290,6.9,6.9,41,0.00,CLR,,0.00,WeatherDisplay:10.37,2013-05-16 13:57:00,
2013-05-16 10:02:00,67.5,42.9,29.75,WNW,290,6.9,6.9,41,0.00,CLR,,0.00,WeatherDisplay:10.37,2013-05-16 14:02:00,
2013-05-16 10:07:00,68.0,43.4,29.75,WNW,290,6.9,6.9,41,0.00,CLR,,0.00,WeatherDisplay:10.37,2013-05-16 14:07:00,
2013-05-16 10:12:00,68.4,43.7,29.75,WNW,290,6.9,6.9,41,0.00,CLR,,0.00,WeatherDisplay:10.37,2013-05-16 14:12:00,
2013-05-16 10:17:00,68.7,39.9,29.81,West,280,9.2,23.0,35,0.00,FEW,,0.00,WeatherDisplay:10.37,2013-05-16 14:17:00,
2013-05-16 10:22:00,69.1,40.3,29.81,West,280,9.2,23.0,35,0.00,FEW,,0.00,WeatherDisplay:10.37,2013-05-16 14:22:00,
2013-05-16 10:27:00,69.3,40.4,29.81,West,280,9.2,23.0,35,0.00,FEW,,0.00,WeatherDisplay:10.37,2013-05-16 14:27:00,
2013-05-16 10:32:00,69.4,40.6,29.77,West,280,9.2,23.0,35,0.00,FEW,,0.00,WeatherDisplay:10.37,2013-05-16 14:32:00,
2013-05-16 10:37:00,69.8,40.9,29.77,West,280,9.2,23.0,35,0.00,FEW,,0.00,WeatherDisplay:10.37,2013-05-16 14:37:00,
2013-05-16 10:42:00,70.0,41.1,29.77,West,280,9.2,23.0,35,0.00,FEW,,0.00,WeatherDisplay:10.37,2013-05-16 14:42:00,
2013-05-16 10:47:00,70.3,41.4,29.77,West,280,9.2,23.0,35,0.00,FEW,,0.00,WeatherDisplay:10.37,2013-05-16 14:47:00,
2013-05-16 10:52:00,70.5,41.5,29.77,West,280,9.2,23.0,35,0.00,FEW,,0.00,WeatherDisplay:10.37,2013-05-16 14:52:00,
2013-05-16 10:57:00,70.9,41.9,29.77,West,280,9.2,23.0,35,0.00,FEW,,0.00,WeatherDisplay:10.37,2013-05-16 14:57:00,
2013-05-16 11:02:00,71.1,38.9,29.77,WNW,290,16.1,28.8,31,0.00,FEW,,0.00,WeatherDisplay:10.37,2013-05-16 15:02:00,
2013-05-16 11:07:00,71.2,39.0,29.77,WNW,290,16.1,28.8,31,0.00,FEW,,0.00,WeatherDisplay:10.37,2013-05-16 15:07:00,
2013-05-16 11:12:00,71.4,39.2,29.77,WNW,290,16.1,28.8,31,0.00,FEW,,0.00,WeatherDisplay:10.37,2013-05-16 15:12:00,
2013-05-16 11:17:00,71.6,39.3,29.75,WNW,290,16.1,28.8,31,0.00,FEW,,0.00,WeatherDisplay:10.37,2013-05-16 15:17:00,
2013-05-16 11:22:00,71.6,39.3,29.75,WNW,290,16.1,28.8,31,0.00,FEW,,0.00,WeatherDisplay:10.37,2013-05-16 15:22:00,
2013-05-16 11:27:00,71.8,39.5,29.75,WNW,290,16.1,28.8,31,0.00,FEW,,0.00,WeatherDisplay:10.37,2013-05-16 15:27:00,
2013-05-16 11:32:00,72.0,39.7,29.75,WNW,290,16.1,28.8,31,0.00,FEW,,0.00,WeatherDisplay:10.37,2013-05-16 15:32:00,
2013-05-16 11:37:00,72.1,39.8,29.75,WNW,290,16.1,28.8,31,0.00,FEW,,0.00,WeatherDisplay:10.37,2013-05-16 15:37:00,
2013-05-16 11:42:00,72.3,40.0,29.75,WNW,290,16.1,28.8,31,0.00,FEW,,0.00,WeatherDisplay:10.37,2013-05-16 15:42:00,
2013-05-16 11:47:00,72.5,40.1,29.75,WNW,290,16.1,28.8,31,0.00,FEW,,0.00,WeatherDisplay:10.37,2013-05-16 15:47:00,
2013-05-16 11:52:00,72.7,40.3,29.75,WNW,290,16.1,28.8,31,0.00,FEW,,0.00,WeatherDisplay:10.37,2013-05-16 15:52:00,
2013-05-16 11:57:00,72.9,40.4,29.75,WNW,290,16.1,28.8,31,0.00,FEW,,0.00,WeatherDisplay:10.37,2013-05-16 15:57:00,
2013-05-16 12:02:00,73.0,40.6,29.75,WNW,290,16.1,28.8,31,0.00,FEW,,0.00,WeatherDisplay:10.37,2013-05-16 16:02:00,
2013-05-16 12:07:00,73.4,40.9,29.75,WNW,290,16.1,28.8,31,0.00,FEW,,0.00,WeatherDisplay:10.37,2013-05-16 16:07:00,
2013-05-16 12:12:00,73.6,41.1,29.75,WNW,290,16.1,28.8,31,0.00,FEW,,0.00,WeatherDisplay:10.37,2013-05-16 16:12:00,
2013-05-16 12:17:00,73.6,40.2,29.75,West,260,18.4,33.4,30,0.00,FEW,,0.00,WeatherDisplay:10.37,2013-05-16 16:17:00,
2013-05-16 12:22:00,73.6,40.2,29.75,West,260,18.4,33.4,30,0.00,FEW,,0.00,WeatherDisplay:10.37,2013-05-16 16:22:00,
2013-05-16 12:27:00,73.8,40.4,29.75,West,260,18.4,33.4,30,0.00,FEW,,0.00,WeatherDisplay:10.37,2013-05-16 16:27:00,
2013-05-16 12:32:00,73.9,40.5,29.72,West,260,18.4,33.4,30,0.00,FEW,,0.00,WeatherDisplay:10.37,2013-05-16 16:32:00,
2013-05-16 12:37:00,74.1,40.7,29.72,West,260,18.4,33.4,30,0.00,FEW,,0.00,WeatherDisplay:10.37,2013-05-16 16:37:00,
2013-05-16 12:42:00,74.3,40.8,29.72,West,260,18.4,33.4,30,0.00,FEW,,0.00,WeatherDisplay:10.37,2013-05-16 16:42:00,
2013-05-16 12:47:00,74.5,41.0,29.75,West,260,18.4,33.4,30,0.00,FEW,,0.00,WeatherDisplay:10.37,2013-05-16 16:47:00,
2013-05-16 12:52:00,74.7,41.2,29.75,West,260,18.4,33.4,30,0.00,FEW,,0.00,WeatherDisplay:10.37,2013-05-16 16:52:00,
2013-05-16 12:57:00,74.8,41.3,29.75,West,260,18.4,33.4,30,0.00,FEW,,0.00,WeatherDisplay:10.37,2013-05-16 16:57:00,
2013-05-16 13:02:00,75.0,41.5,29.72,West,260,18.4,33.4,30,0.00,FEW,,0.00,WeatherDisplay:10.37,2013-05-16 17:02:00,
2013-05-16 13:07:00,75.0,41.5,29.72,West,260,18.4,33.4,30,0.00,FEW,,0.00,WeatherDisplay:10.37,2013-05-16 17:07:00,
2013-05-16 13:12:00,75.2,41.6,29.72,West,260,18.4,33.4,30,0.00,FEW,,0.00,WeatherDisplay:10.37,2013-05-16 17:12:00,
2013-05-16 13:17:00,75.4,40.9,29.72,West,280,19.6,29.9,29,0.00,FEW,,0.00,WeatherDisplay:10.37,2013-05-16 17:17:00,
2013-05-16 13:22:00,75.2,40.7,29.72,West,280,19.6,29.9,29,0.00,FEW,,0.00,WeatherDisplay:10.37,2013-05-16 17:22:00,
2013-05-16 13:27:00,75.6,41.1,29.72,West,280,19.6,29.9,29,0.00,FEW,,0.00,WeatherDisplay:10.37,2013-05-16 17:27:00,
2013-05-16 13:32:00,75.6,41.1,29.69,West,280,19.6,29.9,29,0.00,FEW,,0.00,WeatherDisplay:10.37,2013-05-16 17:32:00,
2013-05-16 13:37:00,76.1,41.5,29.69,West,280,19.6,29.9,29,0.00,FEW,,0.00,WeatherDisplay:10.37,2013-05-16 17:37:00,
2013-05-16 13:42:00,76.1,41.5,29.69,West,280,19.6,29.9,29,0.00,FEW,,0.00,WeatherDisplay:10.37,2013-05-16 17:42:00,
2013-05-16 13:47:00,76.3,41.7,29.69,West,280,19.6,29.9,29,0.00,FEW,,0.00,WeatherDisplay:10.37,2013-05-16 17:47:00,
2013-05-16 13:52:00,76.3,41.7,29.69,West,280,19.6,29.9,29,0.00,FEW,,0.00,WeatherDisplay:10.37,2013-05-16 17:52:00,
2013-05-16 13:57:00,76.1,41.5,29.69,West,280,19.6,29.9,29,0.00,FEW,,0.00,WeatherDisplay:10.37,2013-05-16 17:57:00,
2013-05-16 14:02:00,76.1,41.5,29.69,West,280,19.6,29.9,29,0.00,FEW,,0.00,WeatherDisplay:10.37,2013-05-16 18:02:00,
2013-05-16 14:07:00,76.5,41.8,29.69,West,280,19.6,29.9,29,0.00,FEW,,0.00,WeatherDisplay:10.37,2013-05-16 18:07:00,
2013-05-16 14:12:00,76.8,42.1,29.69,West,280,19.6,29.9,29,0.00,FEW,,0.00,WeatherDisplay:10.37,2013-05-16 18:12:00,
2013-05-16 14:17:00,77.0,38.5,29.69,West,280,19.6,43.7,25,0.00,SCT,,0.00,WeatherDisplay:10.37,2013-05-16 18:17:00,
2013-05-16 14:22:00,77.2,38.6,29.69,West,280,19.6,43.7,25,0.00,SCT,,0.00,WeatherDisplay:10.37,2013-05-16 18:22:00,
2013-05-16 14:27:00,77.2,38.6,29.69,West,280,19.6,43.7,25,0.00,SCT,,0.00,WeatherDisplay:10.37,2013-05-16 18:27:00,
2013-05-16 14:33:00,76.8,38.3,29.69,West,280,19.6,43.7,25,0.00,SCT,,0.00,WeatherDisplay:10.37,2013-05-16 18:33:00,
2013-05-16 14:38:00,77.2,38.6,29.69,West,280,19.6,43.7,25,0.00,SCT,,0.00,WeatherDisplay:10.37,2013-05-16 18:38:00,
2013-05-16 14:43:00,77.2,38.6,29.69,West,280,19.6,43.7,25,0.00,SCT,,0.00,WeatherDisplay:10.37,2013-05-16 18:43:00,
2013-05-16 14:48:00,77.5,38.9,29.69,West,280,19.6,43.7,25,0.00,SCT,,0.00,WeatherDisplay:10.37,2013-05-16 18:48:00,
2013-05-16 14:53:00,77.2,38.6,29.69,West,280,19.6,43.7,25,0.00,SCT,,0.00,WeatherDisplay:10.37,2013-05-16 18:53:00,
2013-05-16 14:58:00,77.2,38.6,29.69,West,280,19.6,43.7,25,0.00,SCT,,0.00,WeatherDisplay:10.37,2013-05-16 18:58:00,
2013-05-16 15:03:00,77.4,36.6,29.69,WNW,290,24.2,43.7,23,0.00,SCT,,0.00,WeatherDisplay:10.37,2013-05-16 19:03:00,
2013-05-16 15:08:00,76.8,36.2,29.69,WNW,290,24.2,43.7,23,0.00,SCT,,0.00,WeatherDisplay:10.37,2013-05-16 19:08:00,
2013-05-16 15:13:00,76.5,35.9,29.69,WNW,290,24.2,43.7,23,0.00,SCT,,0.00,WeatherDisplay:10.37,2013-05-16 19:13:00,
2013-05-16 15:18:00,76.6,36.0,29.69,WNW,290,24.2,43.7,23,0.00,SCT,,0.00,WeatherDisplay:10.37,2013-05-16 19:18:00,
2013-05-16 15:23:00,76.5,35.9,29.69,WNW,290,24.2,43.7,23,0.00,SCT,,0.00,WeatherDisplay:10.37,2013-05-16 19:23:00,
2013-05-16 15:28:00,76.1,35.6,29.69,WNW,290,24.2,43.7,23,0.00,SCT,,0.00,WeatherDisplay:10.37,2013-05-16 19:28:00,
2013-05-16 15:33:00,76.5,35.9,29.69,WNW,290,24.2,43.7,23,0.00,SCT,,0.00,WeatherDisplay:10.37,2013-05-16 19:33:00,
2013-05-16 15:38:00,75.9,35.4,29.69,WNW,290,24.2,43.7,23,0.00,SCT,,0.00,WeatherDisplay:10.37,2013-05-16 19:38:00,
2013-05-16 15:43:00,76.1,35.6,29.69,WNW,290,24.2,43.7,23,0.00,SCT,,0.00,WeatherDisplay:10.37,2013-05-16 19:43:00,
2013-05-16 15:48:00,76.3,35.7,29.69,WNW,290,24.2,43.7,23,0.00,SCT,,0.00,WeatherDisplay:10.37,2013-05-16 19:48:00,
2013-05-16 15:53:00,75.7,35.3,29.69,WNW,290,24.2,43.7,23,0.00,SCT,,0.00,WeatherDisplay:10.37,2013-05-16 19:53:00,
2013-05-16 15:58:00,75.9,35.4,29.69,WNW,290,24.2,43.7,23,0.00,SCT,,0.00,WeatherDisplay:10.37,2013-05-16 19:58:00,
2013-05-16 16:03:00,76.5,34.8,29.69,West,270,21.9,41.4,22,0.00,SCT,,0.00,WeatherDisplay:10.37,2013-05-16 20:03:00,
2013-05-16 16:08:00,76.3,34.6,29.69,West,270,21.9,41.4,22,0.00,SCT,,0.00,WeatherDisplay:10.37,2013-05-16 20:08:00,
2013-05-16 16:13:00,76.5,34.8,29.69,West,270,21.9,41.4,22,0.00,SCT,,0.00,WeatherDisplay:10.37,2013-05-16 20:13:00,
2013-05-16 16:18:00,76.5,34.8,29.69,West,270,21.9,41.4,22,0.00,SCT,,0.00,WeatherDisplay:10.37,2013-05-16 20:18:00,
2013-05-16 16:23:00,76.5,34.8,29.69,West,270,21.9,41.4,22,0.00,SCT,,0.00,WeatherDisplay:10.37,2013-05-16 20:23:00,
2013-05-16 16:28:00,76.5,34.8,29.69,West,270,21.9,41.4,22,0.00,SCT,,0.00,WeatherDisplay:10.37,2013-05-16 20:28:00,
2013-05-16 16:33:00,76.6,34.9,29.69,West,270,21.9,41.4,22,0.00,SCT,,0.00,WeatherDisplay:10.37,2013-05-16 20:33:00,
2013-05-16 16:38:00,76.3,34.6,29.69,West,270,21.9,41.4,22,0.00,SCT,,0.00,WeatherDisplay:10.37,2013-05-16 20:38:00,
2013-05-16 16:43:00,76.5,34.8,29.69,West,270,21.9,41.4,22,0.00,SCT,,0.00,WeatherDisplay:10.37,2013-05-16 20:43:00,
2013-05-16 16:48:00,76.5,34.8,29.66,West,270,21.9,41.4,22,0.00,SCT,,0.00,WeatherDisplay:10.37,2013-05-16 20:48:00,
2013-05-16 16:53:00,76.5,34.8,29.66,West,270,21.9,41.4,22,0.00,SCT,,0.00,WeatherDisplay:10.37,2013-05-16 20:53:00,
2013-05-16 16:58:00,76.3,34.6,29.66,West,270,21.9,41.4,22,0.00,SCT,,0.00,WeatherDisplay:10.37,2013-05-16 20:58:00,
2013-05-16 17:03:00,75.9,34.3,29.69,West,280,18.4,36.8,22,0.00,FEW,,0.00,WeatherDisplay:10.37,2013-05-16 21:03:00,
2013-05-16 17:08:00,76.3,34.6,29.69,West,280,18.4,36.8,22,0.00,FEW,,0.00,WeatherDisplay:10.37,2013-05-16 21:08:00,
2013-05-16 17:13:00,76.5,34.8,29.69,West,280,18.4,36.8,22,0.00,FEW,,0.00,WeatherDisplay:10.37,2013-05-16 21:13:00,
2013-05-16 17:18:00,76.5,34.8,29.69,West,280,18.4,36.8,22,0.00,FEW,,0.00,WeatherDisplay:10.37,2013-05-16 21:18:00,
2013-05-16 17:23:00,76.5,34.8,29.69,West,280,18.4,36.8,22,0.00,FEW,,0.00,WeatherDisplay:10.37,2013-05-16 21:23:00,
2013-05-16 17:28:00,76.5,34.8,29.69,West,280,18.4,36.8,22,0.00,FEW,,0.00,WeatherDisplay:10.37,2013-05-16 21:28:00,
2013-05-16 17:33:00,76.3,34.6,29.69,West,280,18.4,36.8,22,0.00,FEW,,0.00,WeatherDisplay:10.37,2013-05-16 21:33:00,
2013-05-16 17:38:00,76.3,34.6,29.69,West,280,18.4,36.8,22,0.00,FEW,,0.00,WeatherDisplay:10.37,2013-05-16 21:38:00,
2013-05-16 17:43:00,76.1,34.5,29.69,West,280,18.4,36.8,22,0.00,FEW,,0.00,WeatherDisplay:10.37,2013-05-16 21:43:00,
2013-05-16 17:48:00,75.9,34.3,29.66,West,280,18.4,36.8,22,0.00,FEW,,0.00,WeatherDisplay:10.37,2013-05-16 21:48:00,
2013-05-16 17:53:00,75.9,34.3,29.66,West,280,18.4,36.8,22,0.00,FEW,,0.00,WeatherDisplay:10.37,2013-05-16 21:53:00,
2013-05-16 17:58:00,75.7,34.2,29.66,West,280,18.4,36.8,22,0.00,FEW,,0.00,WeatherDisplay:10.37,2013-05-16 21:58:00,
2013-05-16 18:03:00,75.4,36.1,29.66,WNW,300,16.1,25.3,24,0.00,FEW,,0.00,WeatherDisplay:10.37,2013-05-16 22:03:00,
2013-05-16 18:08:00,75.2,35.9,29.66,WNW,300,16.1,25.3,24,0.00,FEW,,0.00,WeatherDisplay:10.37,2013-05-16 22:08:00,
2013-05-16 18:13:00,75.0,35.8,29.66,WNW,300,16.1,25.3,24,0.00,FEW,,0.00,WeatherDisplay:10.37,2013-05-16 22:13:00,
2013-05-16 18:18:00,74.8,35.6,29.69,WNW,300,16.1,25.3,24,0.00,FEW,,0.00,WeatherDisplay:10.37,2013-05-16 22:18:00,
2013-05-16 18:23:00,74.7,35.5,29.69,WNW,300,16.1,25.3,24,0.00,FEW,,0.00,WeatherDisplay:10.37,2013-05-16 22:23:00,
2013-05-16 18:28:00,74.5,35.3,29.69,WNW,300,16.1,25.3,24,0.00,FEW,,0.00,WeatherDisplay:10.37,2013-05-16 22:28:00,
2013-05-16 18:33:00,74.3,35.2,29.69,WNW,300,16.1,25.3,24,0.00,FEW,,0.00,WeatherDisplay:10.37,2013-05-16 22:33:00,
2013-05-16 18:38:00,74.1,35.0,29.69,WNW,300,16.1,25.3,24,0.00,FEW,,0.00,WeatherDisplay:10.37,2013-05-16 22:38:00,
2013-05-16 18:43:00,74.1,35.0,29.69,WNW,300,16.1,25.3,24,0.00,FEW,,0.00,WeatherDisplay:10.37,2013-05-16 22:43:00,
2013-05-16 18:48:00,73.9,34.8,29.69,WNW,300,16.1,25.3,24,0.00,FEW,,0.00,WeatherDisplay:10.37,2013-05-16 22:48:00,
2013-05-16 18:53:00,73.6,34.5,29.69,WNW,300,16.1,25.3,24,0.00,FEW,,0.00,WeatherDisplay:10.37,2013-05-16 22:53:00,
2013-05-16 18:58:00,73.4,34.4,29.69,WNW,300,16.1,25.3,24,0.00,FEW,,0.00,WeatherDisplay:10.37,2013-05-16 22:58:00,
2013-05-16 19:03:00,73.0,31.9,29.69,WNW,290,23.0,40.3,22,0.00,FEW,,0.00,WeatherDisplay:10.37,2013-05-16 23:03:00,
2013-05-16 19:08:00,72.9,31.8,29.69,WNW,290,23.0,40.3,22,0.00,FEW,,0.00,WeatherDisplay:10.37,2013-05-16 23:08:00,
2013-05-16 19:13:00,72.5,31.5,29.69,WNW,290,23.0,40.3,22,0.00,FEW,,0.00,WeatherDisplay:10.37,2013-05-16 23:13:00,
2013-05-16 19:18:00,72.5,31.5,29.72,WNW,290,23.0,40.3,22,0.00,FEW,,0.00,WeatherDisplay:10.37,2013-05-16 23:18:00,
2013-05-16 19:23:00,72.1,31.2,29.72,WNW,290,23.0,40.3,22,0.00,FEW,,0.00,WeatherDisplay:10.37,2013-05-16 23:23:00,
2013-05-16 19:28:00,72.1,31.2,29.72,WNW,290,23.0,40.3,22,0.00,FEW,,0.00,WeatherDisplay:10.37,2013-05-16 23:28:00,
2013-05-16 19:33:00,72.0,31.0,29.72,WNW,290,23.0,40.3,22,0.00,FEW,,0.00,WeatherDisplay:10.37,2013-05-16 23:33:00,
2013-05-16 19:38:00,71.6,30.7,29.72,WNW,290,23.0,40.3,22,0.00,FEW,,0.00,WeatherDisplay:10.37,2013-05-16 23:38:00,
2013-05-16 19:43:00,71.4,30.6,29.72,WNW,290,23.0,40.3,22,0.00,FEW,,0.00,WeatherDisplay:10.37,2013-05-16 23:43:00,
2013-05-16 19:48:00,71.2,30.4,29.72,WNW,290,23.0,40.3,22,0.00,FEW,,0.00,WeatherDisplay:10.37,2013-05-16 23:48:00,
2013-05-16 19:53:00,71.1,30.3,29.72,WNW,290,23.0,40.3,22,0.00,FEW,,0.00,WeatherDisplay:10.37,2013-05-16 23:53:00,
2013-05-16 19:58:00,70.9,30.1,29.72,WNW,290,23.0,40.3,22,0.00,FEW,,0.00,WeatherDisplay:10.37,2013-05-16 23:58:00,
2013-05-16 20:03:00,70.5,33.0,29.75,NW,310,9.2,24.2,25,0.00,FEW,,0.00,WeatherDisplay:10.37,2013-05-17 00:03:00,
2013-05-16 20:08:00,70.5,33.0,29.75,NW,310,9.2,24.2,25,0.00,FEW,,0.00,WeatherDisplay:10.37,2013-05-17 00:08:00,
2013-05-16 20:13:00,70.2,32.7,29.75,NW,310,9.2,24.2,25,0.00,FEW,,0.00,WeatherDisplay:10.37,2013-05-17 00:13:00,
2013-05-16 20:18:00,70.0,32.5,29.75,NW,310,9.2,24.2,25,0.00,FEW,,0.00,WeatherDisplay:10.37,2013-05-17 00:18:00,
2013-05-16 20:23:00,69.6,32.2,29.75,NW,310,9.2,24.2,25,0.00,FEW,,0.00,WeatherDisplay:10.37,2013-05-17 00:23:00,
2013-05-16 20:28:00,69.3,31.9,29.75,NW,310,9.2,24.2,25,0.00,FEW,,0.00,WeatherDisplay:10.37,2013-05-17 00:28:00,
2013-05-16 20:33:00,69.3,31.9,29.77,NW,310,9.2,24.2,25,0.00,FEW,,0.00,WeatherDisplay:10.37,2013-05-17 00:33:00,
2013-05-16 20:38:00,69.1,31.8,29.77,NW,310,9.2,24.2,25,0.00,FEW,,0.00,WeatherDisplay:10.37,2013-05-17 00:38:00,
2013-05-16 20:43:00,68.7,31.4,29.77,NW,310,9.2,24.2,25,0.00,FEW,,0.00,WeatherDisplay:10.37,2013-05-17 00:43:00,
2013-05-16 20:48:00,68.4,31.1,29.77,NW,310,9.2,24.2,25,0.00,FEW,,0.00,WeatherDisplay:10.37,2013-05-17 00:48:00,
2013-05-16 20:53:00,68.2,31.0,29.77,NW,310,9.2,24.2,25,0.00,FEW,,0.00,WeatherDisplay:10.37,2013-05-17 00:53:00,
2013-05-16 20:58:00,67.8,30.7,29.77,NW,310,9.2,24.2,25,0.00,FEW,,0.00,WeatherDisplay:10.37,2013-05-17 00:58:00,
2013-05-16 21:03:00,67.5,33.2,29.77,NW,310,10.4,10.4,28,0.00,FEW,,0.00,WeatherDisplay:10.37,2013-05-17 01:03:00,
2013-05-16 21:08:00,67.1,32.9,29.77,NW,310,10.4,10.4,28,0.00,FEW,,0.00,WeatherDisplay:10.37,2013-05-17 01:08:00,
2013-05-16 21:13:00,66.7,32.6,29.77,NW,310,10.4,10.4,28,0.00,FEW,,0.00,WeatherDisplay:10.37,2013-05-17 01:13:00,
2013-05-16 21:18:00,66.4,32.3,29.81,NW,310,10.4,10.4,28,0.00,FEW,,0.00,WeatherDisplay:10.37,2013-05-17 01:18:00,
2013-05-16 21:23:00,66.2,32.1,29.81,NW,310,10.4,10.4,28,0.00,FEW,,0.00,WeatherDisplay:10.37,2013-05-17 01:23:00,
2013-05-16 21:28:00,65.8,31.8,29.81,NW,310,10.4,10.4,28,0.00,FEW,,0.00,WeatherDisplay:10.37,2013-05-17 01:28:00,
2013-05-16 21:33:00,65.1,31.2,29.81,NW,310,10.4,10.4,28,0.00,FEW,,0.00,WeatherDisplay:10.37,2013-05-17 01:33:00,
2013-05-16 21:38:00,64.9,31.0,29.81,NW,310,10.4,10.4,28,0.00,FEW,,0.00,WeatherDisplay:10.37,2013-05-17 01:38:00,
2013-05-16 21:43:00,64.4,30.6,29.81,NW,310,10.4,10.4,28,0.00,FEW,,0.00,WeatherDisplay:10.37,2013-05-17 01:43:00,
2013-05-16 21:48:00,63.9,30.1,29.81,NW,310,10.4,10.4,28,0.00,FEW,,0.00,WeatherDisplay:10.37,2013-05-17 01:48:00,
2013-05-16 21:53:00,63.5,29.8,29.81,NW,310,10.4,10.4,28,0.00,FEW,,0.00,WeatherDisplay:10.37,2013-05-17 01:53:00,
2013-05-16 21:58:00,63.1,29.5,29.81,NW,310,10.4,10.4,28,0.00,FEW,,0.00,WeatherDisplay:10.37,2013-05-17 01:58:00,
2013-05-16 22:03:00,63.0,35.6,29.81,NW,320,4.6,4.6,36,0.00,CLR,,0.00,WeatherDisplay:10.37,2013-05-17 02:03:00,
2013-05-16 22:08:00,62.2,34.9,29.81,NW,320,4.6,4.6,36,0.00,CLR,,0.00,WeatherDisplay:10.37,2013-05-17 02:08:00,
2013-05-16 22:13:00,62.2,34.9,29.81,NW,320,4.6,4.6,36,0.00,CLR,,0.00,WeatherDisplay:10.37,2013-05-17 02:13:00,
2013-05-16 22:18:00,61.9,34.6,29.81,NW,320,4.6,4.6,36,0.00,CLR,,0.00,WeatherDisplay:10.37,2013-05-17 02:18:00,
2013-05-16 22:23:00,61.3,34.1,29.81,NW,320,4.6,4.6,36,0.00,CLR,,0.00,WeatherDisplay:10.37,2013-05-17 02:23:00,
2013-05-16 22:28:00,60.8,33.7,29.81,NW,320,4.6,4.6,36,0.00,CLR,,0.00,WeatherDisplay:10.37,2013-05-17 02:28:00,
2013-05-16 22:33:00,60.6,33.5,29.83,NW,320,4.6,4.6,36,0.00,CLR,,0.00,WeatherDisplay:10.37,2013-05-17 02:33:00,
2013-05-16 22:38:00,60.4,33.3,29.83,NW,320,4.6,4.6,36,0.00,CLR,,0.00,WeatherDisplay:10.37,2013-05-17 02:38:00,
2013-05-16 22:43:00,60.1,33.0,29.83,NW,320,4.6,4.6,36,0.00,CLR,,0.00,WeatherDisplay:10.37,2013-05-17 02:43:00,
2013-05-16 22:48:00,60.1,33.0,29.83,NW,320,4.6,4.6,36,0.00,CLR,,0.00,WeatherDisplay:10.37,2013-05-17 02:48:00,
2013-05-16 22:53:00,60.3,33.2,29.83,NW,320,4.6,4.6,36,0.00,CLR,,0.00,WeatherDisplay:10.37,2013-05-17 02:53:00,
2013-05-16 22:58:00,60.3,33.2,29.83,NW,320,4.6,4.6,36,0.00,CLR,,0.00,WeatherDisplay:10.37,2013-05-17 02:58:00,
2013-05-16 23:03:00,60.8,36.3,29.83,West,260,6.9,6.9,40,0.00,CLR,,0.00,WeatherDisplay:10.37,2013-05-17 03:03:00,
2013-05-16 23:08:00,60.8,36.3,29.83,West,260,6.9,6.9,40,0.00,CLR,,0.00,WeatherDisplay:10.37,2013-05-17 03:08:00,
2013-05-16 23:13:00,61.0,36.5,29.83,West,260,6.9,6.9,40,0.00,CLR,,0.00,WeatherDisplay:10.37,2013-05-17 03:13:00,
2013-05-16 23:18:00,61.0,36.5,29.83,West,260,6.9,6.9,40,0.00,CLR,,0.00,WeatherDisplay:10.37,2013-05-17 03:18:00,
2013-05-16 23:23:00,61.0,36.5,29.83,West,260,6.9,6.9,40,0.00,CLR,,0.00,WeatherDisplay:10.37,2013-05-17 03:23:00,
2013-05-16 23:28:00,61.2,36.6,29.83,West,260,6.9,6.9,40,0.00,CLR,,0.00,WeatherDisplay:10.37,2013-05-17 03:28:00,
2013-05-16 23:33:00,61.3,36.8,29.81,West,260,6.9,6.9,40,0.00,CLR,,0.00,WeatherDisplay:10.37,2013-05-17 03:33:00,
2013-05-16 23:38:00,61.3,36.8,29.81,West,260,6.9,6.9,40,0.00,CLR,,0.00,WeatherDisplay:10.37,2013-05-17 03:38:00,
2013-05-16 23:43:00,61.3,36.8,29.81,West,260,6.9,6.9,40,0.00,CLR,,0.00,WeatherDisplay:10.37,2013-05-17 03:43:00,
2013-05-16 23:48:00,61.3,36.8,29.83,West,260,6.9,6.9,40,0.00,CLR,,0.00,WeatherDisplay:10.37,2013-05-17 03:48:00,
2013-05-16 23:53:00,61.2,36.6,29.83,West,260,6.9,6.9,40,0.00,CLR,,0.00,WeatherDisplay:10.37,2013-05-17 03:53:00,
2013-05-16 23:58:00,61.0,36.5,29.83,West,260,6.9,6.9,40,0.00,CLR,,0.00,WeatherDisplay:10.37,2013-05-17 03:58:00,